Accueil
METAR-TAF:

METAR-TAF

Aéroports :

Locarno, Suisse

latitude: 46-09-55N, longitude: 8-52-40E, altitude: 198 m

Observation

Le bulletin a été fait il y a 44 minutes, à 09:50 UTC
Vent calme
Température 4°C
Humidité 48%
Pression 1008 hPa
Visibilité 10 km ou plus
Quelques nuages à une hauteur de 6000 ft
Nuages fragmentés à une hauteur de 7500 ft

METAR: LSZL 220950Z 00000KT 9999 FEW060 BKN075 04/M06 Q1008 RMK BLU

Heure: 11:34 (10:34 UTC)

Prévision

Le bulletin a été fait il y a 5 heures et 9 minutes, à 05:25 UTC
Prévision valable du 22 à 06 UTC au 22 à 15 UTC
Vent 3 kt de est/nord-est
Visibilité 10 km ou plus
Nuages fragmentés à une hauteur de 10000 ft

TAF: LSZL 220525Z 2206/2215 07003KT 9999 BKN100

Observations et prévisions météorologiques de plus de 4000 aéroports (messages METAR et TAF).

Les stations disponibles sont représentées par des disques jaunes et rouges sur la carte.

Passer la souris dessus pour voir le nom de la station.

Cliquer dessus pour voir les observations et prévisions météorologiques.

Pour changer de carte: cliquez sur les boutons verts avec une croix noire pour zoomer, sur le bouton vert avec un tiret pour effectuer un zoom arrière, ou sur les flèches vertes pour les cartes adjacentes.


METAR-TAF: